Terminal Aerodrome Forecast
Issued by NWS

Home | Current Version | Previous Version | Text Only | Print | Product List | Glossary On
Versions: 1 2 3 4 5 6 7 8 9 10 11 12 13 14 15 16 17 18 19 20 21 22 23 24
000
FTUS43 KMQT 212320
TAFIWD
TAF
KIWD 212320Z 2200/2224 06009KT P6SM -RA BKN040
     FM220400 07008KT P6SM -SHRA OVC027
     FM220700 07007KT P6SM -SHRA OVC018
     FM221100 05006KT P6SM -SHRA OVC008
     FM222000 04010KT 2SM -SHRA BR OVC006=

USA.gov is the U.S. government's official web portal to all federal, state and local government web resources and services.